sensor_id;sensor_type;location;lat;lon;timestamp;pressure;altitude;pressure_sealevel;temperature;humidity
7990;BME280;4040;42.848;23.034;2023-05-03T00:03:36;95214.16;;;12.48;50.25
7990;BME280;4040;42.848;23.034;2023-05-03T00:13:48;95221.22;;;12.38;51.37
7990;BME280;4040;42.848;23.034;2023-05-03T00:19:37;95216.69;;;12.28;51.56
7990;BME280;4040;42.848;23.034;2023-05-03T00:25:26;95221.34;;;12.24;51.83
7990;BME280;4040;42.848;23.034;2023-05-03T00:31:16;95230.31;;;12.14;52.36
7990;BME280;4040;42.848;23.034;2023-05-03T00:37:05;95220.31;;;12.11;52.20
7990;BME280;4040;42.848;23.034;2023-05-03T00:42:55;95240.03;;;12.08;51.84
7990;BME280;4040;42.848;23.034;2023-05-03T00:48:46;95221.53;;;12.03;52.17
7990;BME280;4040;42.848;23.034;2023-05-03T00:54:35;95187.09;;;11.77;52.43
7990;BME280;4040;42.848;23.034;2023-05-03T01:00:24;95214.28;;;11.97;52.49
7990;BME280;4040;42.848;23.034;2023-05-03T01:06:21;95218.56;;;11.94;52.46
7990;BME280;4040;42.848;23.034;2023-05-03T01:16:39;95208.16;;;11.93;52.32
7990;BME280;4040;42.848;23.034;2023-05-03T01:22:38;95187.03;;;11.84;52.87
7990;BME280;4040;42.848;23.034;2023-05-03T01:28:31;95187.91;;;11.74;53.53
7990;BME280;4040;42.848;23.034;2023-05-03T01:34:39;95149.59;;;11.42;53.92
7990;BME280;4040;42.848;23.034;2023-05-03T01:40:31;95192.63;;;11.56;53.86
7990;BME280;4040;42.848;23.034;2023-05-03T01:46:25;95168.91;;;11.37;53.81
7990;BME280;4040;42.848;23.034;2023-05-03T01:52:13;95201.13;;;11.51;53.94
7990;BME280;4040;42.848;23.034;2023-05-03T01:58:02;95200.78;;;11.49;54.68
7990;BME280;4040;42.848;23.034;2023-05-03T02:03:53;95182.75;;;11.39;55.22
7990;BME280;4040;42.848;23.034;2023-05-03T02:09:42;95179.69;;;11.34;55.88
7990;BME280;4040;42.848;23.034;2023-05-03T02:15:31;95168.94;;;11.30;56.44
7990;BME280;4040;42.848;23.034;2023-05-03T02:21:21;95160.56;;;11.21;56.77
7990;BME280;4040;42.848;23.034;2023-05-03T02:27:10;95164.81;;;11.15;57.75
7990;BME280;4040;42.848;23.034;2023-05-03T02:32:58;95158.34;;;11.06;58.65
7990;BME280;4040;42.848;23.034;2023-05-03T02:38:49;95171.84;;;11.02;59.20
7990;BME280;4040;42.848;23.034;2023-05-03T02:44:37;95178.00;;;11.03;59.50
7990;BME280;4040;42.848;23.034;2023-05-03T02:50:26;95165.31;;;10.96;59.98
7990;BME280;4040;42.848;23.034;2023-05-03T02:56:16;95169.22;;;10.88;60.85
7990;BME280;4040;42.848;23.034;2023-05-03T03:02:04;95180.03;;;10.85;62.30
7990;BME280;4040;42.848;23.034;2023-05-03T03:07:53;95192.75;;;10.77;62.77
7990;BME280;4040;42.848;23.034;2023-05-03T03:17:25;95175.84;;;10.73;64.10
7990;BME280;4040;42.848;23.034;2023-05-03T03:23:14;95194.72;;;10.73;64.64
7990;BME280;4040;42.848;23.034;2023-05-03T03:29:02;95200.91;;;10.70;65.19
7990;BME280;4040;42.848;23.034;2023-05-03T03:34:53;95192.41;;;10.72;64.93
7990;BME280;4040;42.848;23.034;2023-05-03T03:40:41;95204.69;;;10.76;64.43
7990;BME280;4040;42.848;23.034;2023-05-03T03:46:30;95190.06;;;10.74;63.97
7990;BME280;4040;42.848;23.034;2023-05-03T03:52:20;95205.47;;;10.77;64.13
7990;BME280;4040;42.848;23.034;2023-05-03T03:58:09;95213.91;;;10.82;63.98
7990;BME280;4040;42.848;23.034;2023-05-03T04:03:58;95210.44;;;10.82;64.24
7990;BME280;4040;42.848;23.034;2023-05-03T04:09:48;95221.19;;;10.92;63.29
7990;BME280;4040;42.848;23.034;2023-05-03T04:19:39;95223.09;;;10.92;63.27
7990;BME280;4040;42.848;23.034;2023-05-03T04:25:29;95226.16;;;10.97;63.27
7990;BME280;4040;42.848;23.034;2023-05-03T04:31:18;95228.09;;;10.93;63.14
7990;BME280;4040;42.848;23.034;2023-05-03T04:37:08;95247.31;;;11.02;63.21
7990;BME280;4040;42.848;23.034;2023-05-03T04:42:58;95274.66;;;10.97;63.97
7990;BME280;4040;42.848;23.034;2023-05-03T04:48:47;95265.41;;;10.98;64.57
7990;BME280;4040;42.848;23.034;2023-05-03T04:54:36;95270.81;;;10.98;65.51
7990;BME280;4040;42.848;23.034;2023-05-03T05:00:26;95270.34;;;11.14;66.31
7990;BME280;4040;42.848;23.034;2023-05-03T05:06:14;95279.53;;;11.23;66.29
7990;BME280;4040;42.848;23.034;2023-05-03T05:12:04;95290.69;;;11.25;66.36
7990;BME280;4040;42.848;23.034;2023-05-03T05:22:06;95304.50;;;11.38;67.45
7990;BME280;4040;42.848;23.034;2023-05-03T05:27:55;95325.38;;;11.23;68.71
7990;BME280;4040;42.848;23.034;2023-05-03T05:33:44;95309.94;;;11.27;71.58
7990;BME280;4040;42.848;23.034;2023-05-03T05:39:33;95311.47;;;11.28;73.29
7990;BME280;4040;42.848;23.034;2023-05-03T05:45:22;95313.06;;;11.22;77.13
7990;BME280;4040;42.848;23.034;2023-05-03T05:51:11;95319.31;;;10.98;85.08
7990;BME280;4040;42.848;23.034;2023-05-03T05:57:01;95323.13;;;11.11;90.47
7990;BME280;4040;42.848;23.034;2023-05-03T06:02:49;95317.78;;;10.97;100.00
7990;BME280;4040;42.848;23.034;2023-05-03T06:08:38;95317.06;;;10.86;100.00
7990;BME280;4040;42.848;23.034;2023-05-03T06:14:29;95327.06;;;10.86;100.00
7990;BME280;4040;42.848;23.034;2023-05-03T06:24:39;95334.00;;;10.76;100.00
7990;BME280;4040;42.848;23.034;2023-05-03T06:30:29;95336.34;;;10.71;100.00
7990;BME280;4040;42.848;23.034;2023-05-03T06:36:18;95324.75;;;10.84;100.00
7990;BME280;4040;42.848;23.034;2023-05-03T06:42:07;95315.50;;;10.96;100.00
7990;BME280;4040;42.848;23.034;2023-05-03T06:47:57;95321.44;;;11.42;100.00
7990;BME280;4040;42.848;23.034;2023-05-03T06:53:45;95286.00;;;11.43;98.75
7990;BME280;4040;42.848;23.034;2023-05-03T06:59:34;95284.34;;;11.56;96.31
7990;BME280;4040;42.848;23.034;2023-05-03T07:05:28;95272.41;;;12.08;88.74
7990;BME280;4040;42.848;23.034;2023-05-03T07:11:17;95290.78;;;12.27;86.49
7990;BME280;4040;42.848;23.034;2023-05-03T07:17:08;95289.28;;;12.19;86.39
7990;BME280;4040;42.848;23.034;2023-05-03T07:27:20;95289.38;;;12.09;87.67
7990;BME280;4040;42.848;23.034;2023-05-03T07:33:09;95323.25;;;12.17;87.72
7990;BME280;4040;42.848;23.034;2023-05-03T07:38:58;95309.91;;;12.43;82.89
7990;BME280;4040;42.848;23.034;2023-05-03T07:44:48;95304.13;;;12.41;81.77
7990;BME280;4040;42.848;23.034;2023-05-03T07:50:36;95307.56;;;12.45;79.72
7990;BME280;4040;42.848;23.034;2023-05-03T07:56:26;95308.81;;;12.74;75.22
7990;BME280;4040;42.848;23.034;2023-05-03T08:02:16;95295.97;;;13.18;73.57
7990;BME280;4040;42.848;23.034;2023-05-03T08:08:05;95289.69;;;13.25;70.03
7990;BME280;4040;42.848;23.034;2023-05-03T08:13:54;95289.34;;;13.53;69.24
7990;BME280;4040;42.848;23.034;2023-05-03T08:19:44;95288.59;;;13.49;69.11
7990;BME280;4040;42.848;23.034;2023-05-03T08:29:54;95283.66;;;14.66;63.98
7990;BME280;4040;42.848;23.034;2023-05-03T08:35:45;95325.13;;;14.63;66.06
7990;BME280;4040;42.848;23.034;2023-05-03T08:41:33;95332.53;;;15.01;64.24
7990;BME280;4040;42.848;23.034;2023-05-03T08:47:22;95293.28;;;16.47;59.60
7990;BME280;4040;42.848;23.034;2023-05-03T08:53:12;95251.72;;;18.32;51.56
7990;BME280;4040;42.848;23.034;2023-05-03T08:59:01;95254.63;;;18.84;49.56
7990;BME280;4040;42.848;23.034;2023-05-03T09:04:54;95286.19;;;17.76;51.51
7990;BME280;4040;42.848;23.034;2023-05-03T09:10:44;95275.47;;;18.19;52.06
7990;BME280;4040;42.848;23.034;2023-05-03T09:16:33;95282.25;;;16.67;55.80
7990;BME280;4040;42.848;23.034;2023-05-03T09:22:24;95286.91;;;16.38;57.35
7990;BME280;4040;42.848;23.034;2023-05-03T09:32:47;95260.53;;;18.48;52.91
7990;BME280;4040;42.848;23.034;2023-05-03T09:38:36;95251.84;;;17.79;54.49
7990;BME280;4040;42.848;23.034;2023-05-03T09:44:39;95239.50;;;18.24;53.79
7990;BME280;4040;42.848;23.034;2023-05-03T09:50:32;95220.94;;;19.91;49.10
7990;BME280;4040;42.848;23.034;2023-05-03T09:56:20;95233.25;;;19.56;49.68
7990;BME280;4040;42.848;23.034;2023-05-03T10:02:12;95243.53;;;18.66;50.89
7990;BME280;4040;42.848;23.034;2023-05-03T10:08:04;95206.81;;;20.41;46.51
7990;BME280;4040;42.848;23.034;2023-05-03T10:13:54;95226.19;;;19.37;48.51
7990;BME280;4040;42.848;23.034;2023-05-03T10:19:48;95229.09;;;18.78;50.64
7990;BME280;4040;42.848;23.034;2023-05-03T10:26:12;95201.91;;;18.53;51.08
7990;BME280;4040;42.848;23.034;2023-05-03T10:32:01;95196.59;;;18.24;52.29
7990;BME280;4040;42.848;23.034;2023-05-03T10:37:51;95185.81;;;18.89;51.38
7990;BME280;4040;42.848;23.034;2023-05-03T10:43:42;95171.81;;;19.08;50.94
7990;BME280;4040;42.848;23.034;2023-05-03T10:49:31;95181.47;;;17.65;53.47
7990;BME280;4040;42.848;23.034;2023-05-03T10:55:21;95195.66;;;17.47;54.33
7990;BME280;4040;42.848;23.034;2023-05-03T11:01:13;95202.38;;;18.39;53.72
7990;BME280;4040;42.848;23.034;2023-05-03T11:07:02;95185.94;;;18.64;52.35
7990;BME280;4040;42.848;23.034;2023-05-03T11:12:51;95177.06;;;18.94;51.94
7990;BME280;4040;42.848;23.034;2023-05-03T11:18:41;95188.44;;;18.37;52.95
7990;BME280;4040;42.848;23.034;2023-05-03T11:24:30;95194.06;;;17.96;55.08
7990;BME280;4040;42.848;23.034;2023-05-03T11:34:32;95183.22;;;18.30;55.38
7990;BME280;4040;42.848;23.034;2023-05-03T11:40:20;95170.31;;;18.64;54.61
7990;BME280;4040;42.848;23.034;2023-05-03T11:46:09;95155.78;;;18.89;55.05
7990;BME280;4040;42.848;23.034;2023-05-03T11:52:00;95130.03;;;19.60;52.83
7990;BME280;4040;42.848;23.034;2023-05-03T11:57:50;95121.00;;;19.11;54.51
7990;BME280;4040;42.848;23.034;2023-05-03T12:03:39;95100.63;;;18.94;56.42
7990;BME280;4040;42.848;23.034;2023-05-03T12:09:29;95096.22;;;18.66;56.90
7990;BME280;4040;42.848;23.034;2023-05-03T12:15:29;95082.50;;;18.57;56.82
7990;BME280;4040;42.848;23.034;2023-05-03T12:21:19;95066.50;;;18.68;57.90
7990;BME280;4040;42.848;23.034;2023-05-03T12:27:09;95049.25;;;18.28;59.44
7990;BME280;4040;42.848;23.034;2023-05-03T12:37:21;95036.63;;;18.34;61.06
7990;BME280;4040;42.848;23.034;2023-05-03T12:43:11;95041.53;;;18.26;59.29
7990;BME280;4040;42.848;23.034;2023-05-03T12:49:00;95034.44;;;18.29;59.84
7990;BME280;4040;42.848;23.034;2023-05-03T12:54:49;95029.72;;;18.51;58.51
7990;BME280;4040;42.848;23.034;2023-05-03T13:00:39;95030.75;;;18.23;59.12
7990;BME280;4040;42.848;23.034;2023-05-03T13:06:28;95033.06;;;17.69;62.28
7990;BME280;4040;42.848;23.034;2023-05-03T13:12:18;95029.88;;;17.37;65.27
7990;BME280;4040;42.848;23.034;2023-05-03T13:18:09;95027.13;;;17.24;65.05
7990;BME280;4040;42.848;23.034;2023-05-03T13:24:00;95043.28;;;16.81;68.03
7990;BME280;4040;42.848;23.034;2023-05-03T13:29:48;95035.88;;;16.28;72.75
7990;BME280;4040;42.848;23.034;2023-05-03T13:40:00;95067.31;;;15.72;86.69
7990;BME280;4040;42.848;23.034;2023-05-03T13:45:49;95093.72;;;14.73;100.00
7990;BME280;4040;42.848;23.034;2023-05-03T13:51:39;95083.88;;;14.63;100.00
7990;BME280;4040;42.848;23.034;2023-05-03T13:57:29;95089.72;;;14.42;100.00
7990;BME280;4040;42.848;23.034;2023-05-03T14:03:17;95106.72;;;13.61;100.00
7990;BME280;4040;42.848;23.034;2023-05-03T14:09:06;95111.47;;;12.77;100.00
7990;BME280;4040;42.848;23.034;2023-05-03T14:14:56;95114.81;;;12.29;100.00
7990;BME280;4040;42.848;23.034;2023-05-03T14:20:45;95118.06;;;12.13;100.00
7990;BME280;4040;42.848;23.034;2023-05-03T14:26:36;95114.09;;;11.91;100.00
7990;BME280;4040;42.848;23.034;2023-05-03T14:32:27;95111.25;;;12.05;100.00
7990;BME280;4040;42.848;23.034;2023-05-03T14:42:38;95119.59;;;12.48;100.00
7990;BME280;4040;42.848;23.034;2023-05-03T14:48:28;95091.56;;;12.38;100.00
7990;BME280;4040;42.848;23.034;2023-05-03T14:54:16;95136.38;;;12.32;100.00
7990;BME280;4040;42.848;23.034;2023-05-03T15:00:07;95128.09;;;12.16;100.00
7990;BME280;4040;42.848;23.034;2023-05-03T15:06:01;95132.91;;;11.98;100.00
7990;BME280;4040;42.848;23.034;2023-05-03T15:11:49;95146.25;;;11.75;100.00
7990;BME280;4040;42.848;23.034;2023-05-03T15:17:38;95134.72;;;11.71;100.00
7990;BME280;4040;42.848;23.034;2023-05-03T15:23:28;95143.09;;;11.80;100.00
7990;BME280;4040;42.848;23.034;2023-05-03T15:29:16;95136.16;;;11.83;100.00
7990;BME280;4040;42.848;23.034;2023-05-03T15:35:05;95114.16;;;11.40;100.00
7990;BME280;4040;42.848;23.034;2023-05-03T15:45:19;95118.00;;;11.43;100.00
7990;BME280;4040;42.848;23.034;2023-05-03T15:51:09;95139.16;;;11.48;100.00
7990;BME280;4040;42.848;23.034;2023-05-03T15:56:58;95118.03;;;11.36;100.00
7990;BME280;4040;42.848;23.034;2023-05-03T16:02:48;95116.84;;;11.40;100.00
7990;BME280;4040;42.848;23.034;2023-05-03T16:08:37;95121.94;;;11.31;100.00
7990;BME280;4040;42.848;23.034;2023-05-03T16:14:26;95115.78;;;11.31;100.00
7990;BME280;4040;42.848;23.034;2023-05-03T16:20:16;95127.03;;;11.22;100.00
7990;BME280;4040;42.848;23.034;2023-05-03T16:26:10;95138.50;;;11.33;100.00
7990;BME280;4040;42.848;23.034;2023-05-03T16:32:00;95130.41;;;11.33;100.00
7990;BME280;4040;42.848;23.034;2023-05-03T16:37:51;95126.81;;;11.47;100.00
7990;BME280;4040;42.848;23.034;2023-05-03T16:48:03;95119.03;;;11.56;100.00
7990;BME280;4040;42.848;23.034;2023-05-03T16:53:54;95110.69;;;11.43;100.00
7990;BME280;4040;42.848;23.034;2023-05-03T16:59:43;95119.53;;;11.44;100.00
7990;BME280;4040;42.848;23.034;2023-05-03T17:05:32;95128.81;;;11.39;100.00
7990;BME280;4040;42.848;23.034;2023-05-03T17:11:22;95123.41;;;11.39;100.00
7990;BME280;4040;42.848;23.034;2023-05-03T17:17:11;95130.41;;;11.33;100.00
7990;BME280;4040;42.848;23.034;2023-05-03T17:23:00;95135.84;;;11.30;100.00
7990;BME280;4040;42.848;23.034;2023-05-03T17:28:50;95150.47;;;11.32;100.00
7990;BME280;4040;42.848;23.034;2023-05-03T17:34:42;95154.28;;;11.35;100.00
7990;BME280;4040;42.848;23.034;2023-05-03T17:40:31;95152.47;;;11.21;100.00
7990;BME280;4040;42.848;23.034;2023-05-03T17:50:43;95162.75;;;11.37;100.00
7990;BME280;4040;42.848;23.034;2023-05-03T17:56:32;95159.50;;;11.52;100.00
7990;BME280;4040;42.848;23.034;2023-05-03T18:02:21;95132.31;;;11.36;100.00
7990;BME280;4040;42.848;23.034;2023-05-03T18:08:11;95171.81;;;11.60;100.00
7990;BME280;4040;42.848;23.034;2023-05-03T18:13:59;95172.59;;;11.61;100.00
7990;BME280;4040;42.848;23.034;2023-05-03T18:19:48;95171.06;;;11.56;100.00
7990;BME280;4040;42.848;23.034;2023-05-03T18:25:38;95173.81;;;11.49;100.00
7990;BME280;4040;42.848;23.034;2023-05-03T18:31:27;95177.25;;;11.53;100.00
7990;BME280;4040;42.848;23.034;2023-05-03T18:37:16;95178.84;;;11.47;100.00
7990;BME280;4040;42.848;23.034;2023-05-03T18:43:07;95183.44;;;11.50;100.00
7990;BME280;4040;42.848;23.034;2023-05-03T18:53:17;95207.38;;;11.41;100.00
7990;BME280;4040;42.848;23.034;2023-05-03T18:59:08;95132.16;;;11.03;100.00
7990;BME280;4040;42.848;23.034;2023-05-03T19:04:56;95210.91;;;11.31;100.00
7990;BME280;4040;42.848;23.034;2023-05-03T19:10:45;95189.13;;;11.08;100.00
7990;BME280;4040;42.848;23.034;2023-05-03T19:16:36;95211.38;;;11.19;100.00
7990;BME280;4040;42.848;23.034;2023-05-03T19:22:25;95204.47;;;11.18;100.00
7990;BME280;4040;42.848;23.034;2023-05-03T19:28:14;95204.53;;;11.11;100.00
7990;BME280;4040;42.848;23.034;2023-05-03T19:34:04;95206.44;;;11.07;100.00
7990;BME280;4040;42.848;23.034;2023-05-03T19:39:54;95211.50;;;11.02;100.00
7990;BME280;4040;42.848;23.034;2023-05-03T19:45:43;95203.06;;;10.93;100.00
7990;BME280;4040;42.848;23.034;2023-05-03T19:55:56;95200.81;;;10.81;100.00
7990;BME280;4040;42.848;23.034;2023-05-03T20:01:45;95198.59;;;10.69;100.00
7990;BME280;4040;42.848;23.034;2023-05-03T20:07:34;95201.66;;;10.71;100.00
7990;BME280;4040;42.848;23.034;2023-05-03T20:13:24;95195.50;;;10.70;100.00
7990;BME280;4040;42.848;23.034;2023-05-03T20:19:13;95197.09;;;10.57;100.00
7990;BME280;4040;42.848;23.034;2023-05-03T20:25:03;95187.91;;;10.48;100.00
7990;BME280;4040;42.848;23.034;2023-05-03T20:30:53;95181.78;;;10.40;100.00
7990;BME280;4040;42.848;23.034;2023-05-03T20:36:42;95178.00;;;10.20;100.00
7990;BME280;4040;42.848;23.034;2023-05-03T20:42:30;95169.56;;;10.18;100.00
7990;BME280;4040;42.848;23.034;2023-05-03T20:48:20;95174.19;;;10.00;100.00
7990;BME280;4040;42.848;23.034;2023-05-03T20:58:31;95169.59;;;9.84;100.00
7990;BME280;4040;42.848;23.034;2023-05-03T21:04:23;95173.47;;;9.76;100.00
7990;BME280;4040;42.848;23.034;2023-05-03T21:10:12;95172.69;;;9.79;100.00
7990;BME280;4040;42.848;23.034;2023-05-03T21:16:01;95176.56;;;9.39;100.00
7990;BME280;4040;42.848;23.034;2023-05-03T21:21:51;95166.94;;;9.10;100.00
7990;BME280;4040;42.848;23.034;2023-05-03T21:27:40;95161.16;;;8.98;100.00
7990;BME280;4040;42.848;23.034;2023-05-03T21:33:29;95166.94;;;9.07;100.00
7990;BME280;4040;42.848;23.034;2023-05-03T21:39:18;95166.94;;;9.07;100.00
7990;BME280;4040;42.848;23.034;2023-05-03T21:45:09;95170.34;;;8.90;100.00
7990;BME280;4040;42.848;23.034;2023-05-03T21:50:58;95174.94;;;8.72;100.00
7990;BME280;4040;42.848;23.034;2023-05-03T22:08:33;95165.41;;;7.99;100.00
7990;BME280;4040;42.848;23.034;2023-05-03T22:14:22;95140.16;;;8.04;100.00
7990;BME280;4040;42.848;23.034;2023-05-03T22:20:12;95149.41;;;8.17;100.00
7990;BME280;4040;42.848;23.034;2023-05-03T22:26:02;95146.78;;;8.24;100.00
7990;BME280;4040;42.848;23.034;2023-05-03T22:31:51;95145.28;;;8.37;100.00
7990;BME280;4040;42.848;23.034;2023-05-03T22:37:40;95131.56;;;8.56;100.00
7990;BME280;4040;42.848;23.034;2023-05-03T22:43:30;95119.66;;;8.57;100.00
7990;BME280;4040;42.848;23.034;2023-05-03T22:49:18;95118.94;;;8.81;100.00
7990;BME280;4040;42.848;23.034;2023-05-03T22:55:08;95115.50;;;8.84;100.00
7990;BME280;4040;42.848;23.034;2023-05-03T23:00:59;95120.50;;;8.82;100.00
7990;BME280;4040;42.848;23.034;2023-05-03T23:11:09;95083.66;;;8.93;100.00
7990;BME280;4040;42.848;23.034;2023-05-03T23:16:59;95080.56;;;8.91;100.00
7990;BME280;4040;42.848;23.034;2023-05-03T23:22:49;95084.44;;;9.04;100.00
7990;BME280;4040;42.848;23.034;2023-05-03T23:28:37;95082.88;;;9.06;100.00
7990;BME280;4040;42.848;23.034;2023-05-03T23:34:28;95087.09;;;9.11;100.00
7990;BME280;4040;42.848;23.034;2023-05-03T23:40:16;95076.72;;;9.20;100.00
7990;BME280;4040;42.848;23.034;2023-05-03T23:46:05;95069.78;;;9.33;100.00
7990;BME280;4040;42.848;23.034;2023-05-03T23:51:55;95068.25;;;9.39;100.00
7990;BME280;4040;42.848;23.034;2023-05-03T23:57:44;95064.38;;;9.54;100.00
